Union Ranger — SYMB — position and weather

sailwx.info

Track history (hours):
 
Tides and Currents Weather Stations Pressure Air Temp Water Temp Dewpoint Dewpoint Depression Visibility Wind Speed Wind Dir Waves Ship Positions

Union Ranger

Last reported at 2015-Jan-05 04:21 UTC. Time now 2015-Jan-30 15:35 UTC.
Position N 35°58' W 005°34'.
Warning: this ship's position is 25 days out of date.

Length 185 m; draft 10.2 m.

Type: Ship. MMSI: 240070000.

Date/timePositionNaut miles runAvg speedWind from/ knotsBaromVisibWave heightAir tempDewpointWater temp
2015-Jan-05 04:21N 35°58' W 005°34'6 7.4
2015-Jan-05 03:31N 35°60' W 005°26'8 8.1
2015-Jan-05 02:33N 36°07' W 005°22'1 0.3
2015-Jan-05 00:26N 36°07' W 005°22'0 0.1
2015-Jan-04 22:29N 36°07' W 005°22'0 0.1
2015-Jan-04 21:32N 36°07' W 005°22'0 0.1
2015-Jan-04 20:32N 36°07' W 005°22'0 0.1
2015-Jan-04 19:32N 36°07' W 005°22'0 0.1
2015-Jan-04 18:26N 36°07' W 005°22'2 0.9
2015-Jan-04 16:31N 36°06' W 005°21'7 7.0
2015-Jan-04 15:32N 36°07' W 005°13'0 0.3
2015-Jan-04 14:29N 36°07' W 005°13'0 0.3
2015-Jan-04 13:32N 36°07' W 005°13'0 0.2
2015-Jan-04 12:32N 36°07' W 005°13'1 0.5
2015-Jan-04 11:23N 36°06' W 005°13'1 0.7
2015-Jan-04 10:29N 36°06' W 005°13'1 1.4
2015-Jan-04 09:25N 36°06' W 005°11'1 1.3
2015-Jan-04 08:24N 36°06' W 005°13'16211.4
2015-Jan-03 18:06N 36°32' W 001°54'711.9
2015-Jan-03 17:33N 36°35' W 001°47'1212.3
2015-Jan-03 16:33N 36°41' W 001°33'1211.6
2015-Jan-03 15:33N 36°47' W 001°21'1111.3
2015-Jan-03 14:33N 36°50' W 001°07'1111.3
2015-Jan-03 13:33N 36°52' W 000°53'1111.3
2015-Jan-03 12:33N 36°54' W 000°39'1711.4
2015-Jan-03 11:03N 36°56' W 000°18'611.2
2015-Jan-03 10:31N 36°57' W 000°11'1111.2
2015-Jan-03 09:33N 36°58' E 000°03'  
2014-Dec-31 13:33N 36°39' E 013°43'1010.3
2014-Dec-31 12:33N 36°36' E 013°55'1010.4
2014-Dec-31 11:33N 36°32' E 014°08'1610.8
2014-Dec-31 10:04N 36°28' E 014°27'407 8.5
2014-Dec-29 10:10N 36°25' E 022°53'53 4.5
2014-Dec-28 22:18N 35°59' E 023°51'6 7.7
2014-Dec-28 21:33N 35°58' E 023°58'9 9.2
2014-Dec-28 20:33N 35°57' E 024°09'1010.0
2014-Dec-28 19:33N 35°57' E 024°21'1010.4
2014-Dec-28 18:33N 35°56' E 024°34'1010.4
2014-Dec-28 17:33N 35°53' E 024°46'1110.8
2014-Dec-28 16:33N 35°49' E 024°59'1110.7
2014-Dec-28 15:33N 35°45' E 025°11'1110.5
2014-Dec-28 14:33N 35°41' E 025°23'1110.5
2014-Dec-28 13:32N 35°38' E 025°36'  
Track history (hours):
 
Tides and Currents Weather Stations Pressure Air Temp Water Temp Dewpoint Dewpoint Depression Visibility Wind Speed Wind Dir Waves Ship Positions

Union Ranger

Last reported at 2015-Jan-05 04:21 UTC. Time now 2015-Jan-30 15:35 UTC.
Position N 35°58' W 005°34'.
Warning: this ship's position is 25 days out of date.

Length 185 m; draft 10.2 m.

Type: Ship. MMSI: 240070000.

Date/timePositionNaut miles runAvg speedWind from/ knotsBaromVisibWave heightAir tempDewpointWater temp
2015-Jan-05 04:21N 35°58' W 005°34'6 7.4
2015-Jan-05 03:31N 35°60' W 005°26'8 8.1
2015-Jan-05 02:33N 36°07' W 005°22'1 0.3
2015-Jan-05 00:26N 36°07' W 005°22'0 0.1
2015-Jan-04 22:29N 36°07' W 005°22'0 0.1
2015-Jan-04 21:32N 36°07' W 005°22'0 0.1
2015-Jan-04 20:32N 36°07' W 005°22'0 0.1
2015-Jan-04 19:32N 36°07' W 005°22'0 0.1
2015-Jan-04 18:26N 36°07' W 005°22'2 0.9
2015-Jan-04 16:31N 36°06' W 005°21'7 7.0
2015-Jan-04 15:32N 36°07' W 005°13'0 0.3
2015-Jan-04 14:29N 36°07' W 005°13'0 0.3
2015-Jan-04 13:32N 36°07' W 005°13'0 0.2
2015-Jan-04 12:32N 36°07' W 005°13'1 0.5
2015-Jan-04 11:23N 36°06' W 005°13'1 0.7
2015-Jan-04 10:29N 36°06' W 005°13'1 1.4
2015-Jan-04 09:25N 36°06' W 005°11'1 1.3
2015-Jan-04 08:24N 36°06' W 005°13'16211.4
2015-Jan-03 18:06N 36°32' W 001°54'711.9
2015-Jan-03 17:33N 36°35' W 001°47'1212.3
2015-Jan-03 16:33N 36°41' W 001°33'1211.6
2015-Jan-03 15:33N 36°47' W 001°21'1111.3
2015-Jan-03 14:33N 36°50' W 001°07'1111.3
2015-Jan-03 13:33N 36°52' W 000°53'1111.3
2015-Jan-03 12:33N 36°54' W 000°39'1711.4
2015-Jan-03 11:03N 36°56' W 000°18'611.2
2015-Jan-03 10:31N 36°57' W 000°11'1111.2
2015-Jan-03 09:33N 36°58' E 000°03'  
2014-Dec-31 13:33N 36°39' E 013°43'1010.3
2014-Dec-31 12:33N 36°36' E 013°55'1010.4
2014-Dec-31 11:33N 36°32' E 014°08'1610.8
2014-Dec-31 10:04N 36°28' E 014°27'407 8.5
2014-Dec-29 10:10N 36°25' E 022°53'53 4.5
2014-Dec-28 22:18N 35°59' E 023°51'6 7.7
2014-Dec-28 21:33N 35°58' E 023°58'9 9.2
2014-Dec-28 20:33N 35°57' E 024°09'1010.0
2014-Dec-28 19:33N 35°57' E 024°21'1010.4
2014-Dec-28 18:33N 35°56' E 024°34'1010.4
2014-Dec-28 17:33N 35°53' E 024°46'1110.8
2014-Dec-28 16:33N 35°49' E 024°59'1110.7
2014-Dec-28 15:33N 35°45' E 025°11'1110.5
2014-Dec-28 14:33N 35°41' E 025°23'1110.5
2014-Dec-28 13:32N 35°38' E 025°36'  

Dump ship's entire track history